createdAt,value
2022-08-31T00:00:59.807Z,13.52
2022-08-31T00:06:13.071Z,13.51
2022-08-31T00:11:34.386Z,13.51
2022-08-31T00:16:56.121Z,13.53
2022-08-31T00:22:16.133Z,13.57
2022-08-31T00:27:27.234Z,13.55
2022-08-31T00:32:42.441Z,13.49
2022-08-31T00:38:14.400Z,13.44
2022-08-31T00:43:43.062Z,13.44
2022-08-31T00:49:01.988Z,13.49
2022-08-31T00:54:19.732Z,13.54
2022-08-31T00:59:35.473Z,13.54
2022-08-31T01:04:48.004Z,13.55
2022-08-31T01:10:18.560Z,13.58
2022-08-31T01:15:31.938Z,13.61
2022-08-31T01:21:11.590Z,13.63
2022-08-31T01:26:53.746Z,13.68
2022-08-31T01:32:06.546Z,13.76
2022-08-31T01:37:21.325Z,13.82
2022-08-31T01:42:48.406Z,13.83
2022-08-31T01:48:02.110Z,13.79
2022-08-31T01:53:14.033Z,13.77
2022-08-31T01:58:21.968Z,13.77
2022-08-31T02:03:53.440Z,13.76
2022-08-31T02:10:29.053Z,13.75
2022-08-31T02:15:42.295Z,13.82
2022-08-31T02:20:50.604Z,13.89
2022-08-31T02:25:58.679Z,13.94
2022-08-31T02:31:09.661Z,13.97
2022-08-31T02:36:18.939Z,13.97
2022-08-31T02:41:36.533Z,14.00
2022-08-31T02:47:01.325Z,14.05
2022-08-31T02:52:27.569Z,14.09
2022-08-31T02:57:40.965Z,14.14
2022-08-31T03:02:53.641Z,14.15
2022-08-31T03:09:32.881Z,14.18
2022-08-31T03:14:58.782Z,14.15
2022-08-31T03:20:44.796Z,14.12
2022-08-31T03:26:10.942Z,14.12
2022-08-31T03:31:28.251Z,14.15
2022-08-31T03:36:39.559Z,14.17
2022-08-31T03:41:48.553Z,14.15
2022-08-31T03:47:00.713Z,14.15
2022-08-31T03:52:57.037Z,14.15
2022-08-31T03:58:16.526Z,14.11
2022-08-31T04:03:24.969Z,14.05
2022-08-31T04:08:53.859Z,14.02
2022-08-31T04:14:26.368Z,14.02
2022-08-31T04:20:02.839Z,13.99
2022-08-31T04:25:21.690Z,13.95
2022-08-31T04:30:32.006Z,13.90
2022-08-31T04:35:46.813Z,13.89
2022-08-31T04:40:54.185Z,13.85
2022-08-31T04:46:01.977Z,13.85
2022-08-31T04:51:14.514Z,13.85
2022-08-31T04:56:27.270Z,13.86
2022-08-31T05:01:43.231Z,13.89
2022-08-31T05:07:29.387Z,13.95
2022-08-31T05:12:38.188Z,14.03
2022-08-31T05:17:45.429Z,14.14
2022-08-31T05:22:51.648Z,14.22
2022-08-31T05:28:23.759Z,14.36
2022-08-31T05:33:34.324Z,14.52
2022-08-31T05:38:42.437Z,14.65
2022-08-31T05:43:51.020Z,14.80
2022-08-31T05:49:04.783Z,15.04
2022-08-31T05:54:17.853Z,15.41
2022-08-31T05:59:45.242Z,15.87
2022-08-31T06:04:57.855Z,16.42
2022-08-31T06:10:09.371Z,17.09
2022-08-31T06:15:22.880Z,17.90
2022-08-31T06:20:32.766Z,18.58
2022-08-31T06:25:48.169Z,19.27
2022-08-31T06:30:56.003Z,19.86
2022-08-31T06:36:05.255Z,20.33
2022-08-31T06:41:52.823Z,20.61
2022-08-31T06:47:26.361Z,20.82
2022-08-31T06:52:38.959Z,21.07
2022-08-31T06:58:07.016Z,21.40
2022-08-31T07:03:33.509Z,21.73
2022-08-31T07:08:42.893Z,22.23
2022-08-31T07:13:51.818Z,22.72
2022-08-31T07:19:07.617Z,23.17
2022-08-31T07:24:18.132Z,23.61
2022-08-31T07:29:32.377Z,24.01
2022-08-31T07:34:40.570Z,24.46
2022-08-31T07:40:31.958Z,24.79
2022-08-31T07:45:42.046Z,25.28
2022-08-31T07:50:53.581Z,25.37
2022-08-31T07:56:25.839Z,25.65
2022-08-31T08:01:49.431Z,26.28
2022-08-31T08:07:01.590Z,26.65
2022-08-31T08:12:29.685Z,26.91
2022-08-31T08:17:58.022Z,27.11
2022-08-31T08:23:14.200Z,27.25
2022-08-31T08:28:44.809Z,27.37
2022-08-31T08:33:55.760Z,27.30
2022-08-31T08:39:07.463Z,27.39
2022-08-31T08:44:19.068Z,27.53
2022-08-31T08:49:40.023Z,27.20
2022-08-31T08:54:54.990Z,26.33
2022-08-31T09:00:08.632Z,25.37
2022-08-31T09:06:05.018Z,24.45
2022-08-31T09:11:20.588Z,24.26
2022-08-31T09:16:39.454Z,24.09
2022-08-31T09:21:50.849Z,23.79
2022-08-31T09:27:18.355Z,23.67
2022-08-31T09:32:32.301Z,23.11
2022-08-31T09:37:46.632Z,22.27
2022-08-31T09:43:07.449Z,21.74
2022-08-31T09:48:16.830Z,21.37
2022-08-31T09:53:45.663Z,21.28
2022-08-31T09:58:57.964Z,21.16
2022-08-31T10:04:20.907Z,21.15
2022-08-31T10:09:47.734Z,21.00
2022-08-31T10:15:05.060Z,21.11
2022-08-31T10:20:30.329Z,21.15
2022-08-31T10:25:48.699Z,20.97
2022-08-31T10:31:17.162Z,20.54
2022-08-31T10:36:36.889Z,20.21
2022-08-31T10:41:51.432Z,19.93
2022-08-31T10:47:03.047Z,19.77
2022-08-31T10:52:18.734Z,19.65
2022-08-31T10:57:38.419Z,19.63
2022-08-31T11:03:01.767Z,19.72
2022-08-31T11:08:35.466Z,19.72
2022-08-31T11:14:24.831Z,19.77
2022-08-31T11:19:51.130Z,19.85
2022-08-31T11:25:19.673Z,19.92
2022-08-31T11:30:31.866Z,20.03
2022-08-31T11:36:06.139Z,20.06
2022-08-31T11:41:39.476Z,20.10
2022-08-31T11:47:08.558Z,20.14
2022-08-31T11:52:43.526Z,20.27
2022-08-31T11:58:30.625Z,20.43
2022-08-31T12:03:55.427Z,20.56
2022-08-31T12:09:31.316Z,20.55
2022-08-31T12:14:50.399Z,20.23
2022-08-31T12:20:07.909Z,20.00
2022-08-31T12:25:28.736Z,19.87
2022-08-31T12:30:36.842Z,19.78
2022-08-31T12:35:49.812Z,19.87
2022-08-31T12:41:07.554Z,20.03
2022-08-31T12:46:46.211Z,20.11
2022-08-31T12:52:00.889Z,20.11
2022-08-31T12:57:30.731Z,20.10
2022-08-31T13:02:45.624Z,20.06
2022-08-31T13:07:53.892Z,19.97
2022-08-31T13:13:06.041Z,19.96
2022-08-31T13:18:28.426Z,19.95
2022-08-31T13:23:39.160Z,19.96
2022-08-31T13:28:58.266Z,19.94
2022-08-31T13:34:27.013Z,19.94
2022-08-31T13:39:48.969Z,19.93
2022-08-31T13:45:04.488Z,19.92
2022-08-31T13:50:21.986Z,19.99
2022-08-31T13:55:38.190Z,20.14
2022-08-31T14:00:50.704Z,20.33
2022-08-31T14:06:16.819Z,20.53
2022-08-31T14:11:29.389Z,20.69
2022-08-31T14:16:45.230Z,20.83
2022-08-31T14:22:29.573Z,20.91
2022-08-31T14:27:42.545Z,20.92
2022-08-31T14:32:54.427Z,20.93
2022-08-31T14:38:02.029Z,20.87
2022-08-31T14:43:16.505Z,20.86
2022-08-31T14:48:27.223Z,20.80
2022-08-31T14:53:37.419Z,20.60
2022-08-31T14:58:45.062Z,20.43
2022-08-31T15:03:52.515Z,20.35
2022-08-31T15:09:11.230Z,20.21
2022-08-31T15:14:36.843Z,20.10
2022-08-31T15:19:45.088Z,19.98
2022-08-31T15:24:56.499Z,19.85
2022-08-31T15:30:26.205Z,19.72
2022-08-31T15:35:41.904Z,19.60
2022-08-31T15:40:55.247Z,19.49
2022-08-31T15:46:05.702Z,19.43
2022-08-31T15:51:20.951Z,19.36
2022-08-31T15:56:32.199Z,19.32
2022-08-31T16:01:40.522Z,19.31
2022-08-31T16:06:59.538Z,19.33
2022-08-31T16:12:19.431Z,19.33
2022-08-31T16:17:38.339Z,19.33
2022-08-31T16:23:07.421Z,19.33
2022-08-31T16:28:15.662Z,19.34
2022-08-31T16:33:25.499Z,19.37
2022-08-31T16:38:31.270Z,19.34
2022-08-31T16:43:39.133Z,19.33
2022-08-31T16:49:06.568Z,19.30
2022-08-31T16:54:14.247Z,19.25
2022-08-31T16:59:26.266Z,19.21
2022-08-31T17:04:54.328Z,19.16
2022-08-31T17:10:07.279Z,19.10
2022-08-31T17:15:21.058Z,19.01
2022-08-31T17:20:31.336Z,18.92
2022-08-31T17:25:42.343Z,18.81
2022-08-31T17:30:50.038Z,18.62
2022-08-31T17:35:56.063Z,18.43
2022-08-31T17:41:09.676Z,18.24
2022-08-31T17:46:17.983Z,18.08
2022-08-31T17:51:31.012Z,17.96
2022-08-31T17:56:47.754Z,17.86
2022-08-31T18:02:07.998Z,17.76
2022-08-31T18:07:16.092Z,17.69
2022-08-31T18:12:27.633Z,17.61
2022-08-31T18:17:35.702Z,17.53
2022-08-31T18:22:43.303Z,17.41
2022-08-31T18:27:50.844Z,17.30
2022-08-31T18:32:59.719Z,17.18
2022-08-31T18:38:07.396Z,17.02
2022-08-31T18:43:33.641Z,16.87
2022-08-31T18:49:01.113Z,16.71
2022-08-31T18:54:17.532Z,16.53
2022-08-31T18:59:33.487Z,16.39
2022-08-31T19:04:41.492Z,16.27
2022-08-31T19:09:52.336Z,16.17
2022-08-31T19:15:04.246Z,16.04
2022-08-31T19:20:19.191Z,15.93
2022-08-31T19:25:26.595Z,15.84
2022-08-31T19:30:35.140Z,15.76
2022-08-31T19:35:45.889Z,15.69
2022-08-31T19:40:53.622Z,15.58
2022-08-31T19:46:10.958Z,15.47
2022-08-31T19:51:20.593Z,15.36
2022-08-31T19:56:31.307Z,15.25
2022-08-31T20:01:41.768Z,15.16
2022-08-31T20:07:24.244Z,15.08
2022-08-31T20:12:39.940Z,15.01
2022-08-31T20:17:48.228Z,14.93
2022-08-31T20:22:55.546Z,14.86
2022-08-31T20:28:07.477Z,14.78
2022-08-31T20:33:16.230Z,14.70
2022-08-31T20:38:39.549Z,14.61
2022-08-31T20:43:49.209Z,14.51
2022-08-31T20:49:17.507Z,14.47
2022-08-31T20:54:31.620Z,14.45
2022-08-31T20:59:42.379Z,14.45
2022-08-31T21:04:52.738Z,14.41
2022-08-31T21:10:01.990Z,14.35
2022-08-31T21:15:13.764Z,14.28
2022-08-31T21:20:21.901Z,14.20
2022-08-31T21:25:47.106Z,14.16
2022-08-31T21:31:15.819Z,14.14
2022-08-31T21:36:34.778Z,14.08
2022-08-31T21:41:46.299Z,13.98
2022-08-31T21:46:54.850Z,13.87
2022-08-31T21:52:05.730Z,13.78
2022-08-31T21:57:18.167Z,13.72
2022-08-31T22:02:26.288Z,13.68
2022-08-31T22:07:40.426Z,13.63
2022-08-31T22:12:48.266Z,13.56
2022-08-31T22:18:15.474Z,13.49
2022-08-31T22:23:24.662Z,13.43
2022-08-31T22:28:32.854Z,13.40
2022-08-31T22:33:47.360Z,13.36
2022-08-31T22:38:56.594Z,13.28
2022-08-31T22:44:23.010Z,13.20
2022-08-31T22:49:53.798Z,13.17
2022-08-31T22:55:22.458Z,13.14
2022-08-31T23:00:36.267Z,13.10
2022-08-31T23:05:44.200Z,13.07
2022-08-31T23:10:54.814Z,13.03
2022-08-31T23:16:27.130Z,13.02
2022-08-31T23:21:52.923Z,13.01
2022-08-31T23:27:10.738Z,12.98
2022-08-31T23:32:26.402Z,12.96
2022-08-31T23:37:34.628Z,12.95
2022-08-31T23:42:43.075Z,12.91
2022-08-31T23:47:53.786Z,12.81
2022-08-31T23:53:01.192Z,12.65
2022-08-31T23:58:12.139Z,12.41
